Terminal Aerodrome Forecast
Issued by NWS

Home | Current Version | Previous Version | Text Only | Print | Product List | Glossary On
Versions: 1 2 3 4 5 6 7 8 9 10 11 12 13 14 15 16 17 18 19 20 21 22 23 24 25 26
000
FTUS43 KDLH 252130 AAA
TAFBRD
TAF AMD
KBRD 252130Z 2522/2618 35014KT P6SM SCT016 OVC070
     FM260000 02012G19KT 6SM -RA OVC015
     FM260300 02013G20KT 3SM -RA OVC007
     FM260600 02014G22KT 3SM FZRAPL OVC007
     FM261200 01012G20KT 3SM -SNPL OVC007=

USA.gov is the U.S. government's official web portal to all federal, state and local government web resources and services.